createdAt,value
2017-05-22T00:01:25.681Z,13.80
2017-05-22T00:03:53.582Z,13.80
2017-05-22T00:06:20.461Z,13.80
2017-05-22T00:08:47.254Z,13.70
2017-05-22T00:11:14.082Z,13.70
2017-05-22T00:13:40.982Z,13.70
2017-05-22T00:16:11.262Z,13.60
2017-05-22T00:18:37.405Z,13.60
2017-05-22T00:21:04.190Z,13.50
2017-05-22T00:23:31.063Z,13.50
2017-05-22T00:25:58.877Z,13.40
2017-05-22T00:28:25.705Z,13.40
2017-05-22T00:30:52.510Z,13.40
2017-05-22T00:33:19.424Z,13.30
2017-05-22T00:35:46.226Z,13.30
2017-05-22T00:38:13.146Z,13.40
2017-05-22T00:40:39.994Z,13.30
2017-05-22T00:43:10.183Z,13.30
2017-05-22T00:45:36.984Z,13.30
2017-05-22T00:48:03.925Z,13.20
2017-05-22T00:50:30.753Z,13.10
2017-05-22T00:52:57.529Z,13.20
2017-05-22T00:55:24.472Z,13.20
2017-05-22T00:57:51.285Z,13.10
2017-05-22T01:00:19.121Z,13.10
2017-05-22T01:02:45.956Z,13.10
2017-05-22T01:05:12.813Z,13.10
2017-05-22T01:07:43.033Z,13.10
2017-05-22T01:10:09.957Z,13.10
2017-05-22T01:12:36.854Z,13.10
2017-05-22T01:15:03.736Z,13.10
2017-05-22T01:17:30.593Z,13.00
2017-05-22T01:19:57.493Z,13.00
2017-05-22T01:22:24.281Z,13.10
2017-05-22T01:24:51.112Z,13.10
2017-05-22T01:27:17.956Z,13.00
2017-05-22T01:29:44.853Z,13.00
2017-05-22T01:32:11.660Z,12.90
2017-05-22T01:34:38.521Z,13.00
2017-05-22T01:37:05.437Z,13.00
2017-05-22T01:39:32.385Z,13.00
2017-05-22T01:41:59.236Z,13.00
2017-05-22T01:44:26.182Z,13.00
2017-05-22T01:46:53.016Z,13.00
2017-05-22T01:49:19.944Z,13.00
2017-05-22T01:51:52.585Z,13.10
2017-05-22T01:56:49.673Z,13.00
2017-05-22T01:59:16.520Z,13.00
2017-05-22T02:01:43.397Z,13.00
2017-05-22T02:04:10.215Z,13.00
2017-05-22T02:06:37.040Z,13.00
2017-05-22T02:09:03.861Z,13.00
2017-05-22T02:11:30.664Z,13.10
2017-05-22T02:13:57.528Z,13.10
2017-05-22T02:16:28.224Z,13.10
2017-05-22T02:18:55.089Z,13.10
2017-05-22T02:21:21.921Z,13.10
2017-05-22T02:23:52.520Z,13.10
2017-05-22T02:26:19.336Z,13.10
2017-05-22T02:28:46.136Z,13.20
2017-05-22T02:31:12.959Z,13.20
2017-05-22T02:33:39.751Z,13.20
2017-05-22T02:36:06.584Z,13.20
2017-05-22T02:38:33.387Z,13.20
2017-05-22T02:41:00.180Z,13.20
2017-05-22T02:43:27.037Z,13.10
2017-05-22T02:45:53.843Z,13.10
2017-05-22T02:48:20.683Z,13.10
2017-05-22T02:50:47.493Z,13.10
2017-05-22T02:53:14.357Z,13.10
2017-05-22T02:55:41.147Z,13.10
2017-05-22T02:58:07.951Z,13.00
2017-05-22T03:00:34.747Z,13.00
2017-05-22T03:03:01.620Z,13.00
2017-05-22T03:05:28.519Z,13.00
2017-05-22T03:07:55.396Z,13.00
2017-05-22T03:10:22.219Z,13.10
2017-05-22T03:12:49.064Z,13.10
2017-05-22T03:15:15.851Z,13.10
2017-05-22T03:17:42.679Z,13.10
2017-05-22T03:20:09.499Z,13.10
2017-05-22T03:22:36.343Z,13.10
2017-05-22T03:25:03.203Z,13.10
2017-05-22T03:27:30.015Z,13.10
2017-05-22T03:29:56.883Z,13.10
2017-05-22T03:32:23.686Z,13.20
2017-05-22T03:34:50.467Z,13.10
2017-05-22T03:37:17.283Z,13.20
2017-05-22T03:39:44.067Z,13.10
2017-05-22T03:42:10.851Z,13.20
2017-05-22T03:44:37.618Z,13.20
2017-05-22T03:47:04.427Z,13.30
2017-05-22T03:49:31.214Z,13.30
2017-05-22T03:51:58.042Z,13.30
2017-05-22T03:54:24.843Z,13.30
2017-05-22T03:56:51.626Z,13.30
2017-05-22T03:59:18.391Z,13.40
2017-05-22T04:01:45.163Z,13.40
2017-05-22T04:04:11.983Z,13.30
2017-05-22T04:06:38.743Z,13.20
2017-05-22T04:09:05.551Z,13.10
2017-05-22T04:11:32.370Z,12.90
2017-05-22T04:13:59.143Z,13.00
2017-05-22T04:16:25.926Z,13.00
2017-05-22T04:18:52.808Z,12.90
2017-05-22T04:21:19.603Z,13.00
2017-05-22T04:23:46.394Z,13.10
2017-05-22T04:26:13.187Z,13.00
2017-05-22T04:28:39.954Z,13.10
2017-05-22T04:31:06.770Z,13.00
2017-05-22T04:33:33.579Z,13.00
2017-05-22T04:36:00.351Z,12.90
2017-05-22T04:38:27.142Z,12.80
2017-05-22T04:40:53.911Z,12.80
2017-05-22T04:43:20.678Z,12.80
2017-05-22T04:45:47.550Z,12.90
2017-05-22T04:48:14.385Z,12.90
2017-05-22T04:50:41.170Z,13.10
2017-05-22T04:53:07.939Z,13.20
2017-05-22T04:55:34.762Z,13.30
2017-05-22T04:58:01.559Z,13.30
2017-05-22T05:00:28.322Z,13.40
2017-05-22T05:03:10.054Z,13.50
2017-05-22T05:05:36.818Z,13.50
2017-05-22T05:08:02.853Z,13.50
2017-05-22T05:10:29.670Z,13.60
2017-05-22T05:12:56.465Z,13.70
2017-05-22T05:15:23.274Z,13.80
2017-05-22T05:17:50.069Z,13.80
2017-05-22T05:20:16.854Z,13.90
2017-05-22T05:22:43.634Z,13.90
2017-05-22T05:25:10.438Z,14.00
2017-05-22T05:27:37.217Z,13.90
2017-05-22T05:30:04.001Z,13.90
2017-05-22T05:32:30.801Z,14.00
2017-05-22T05:34:57.597Z,14.10
2017-05-22T05:37:24.366Z,14.10
2017-05-22T05:39:51.169Z,14.10
2017-05-22T05:42:17.961Z,14.30
2017-05-22T05:44:44.757Z,14.40
2017-05-22T05:47:11.549Z,14.40
2017-05-22T05:49:38.334Z,14.60
2017-05-22T05:52:05.086Z,14.70
2017-05-22T05:54:31.886Z,14.90
2017-05-22T05:56:58.665Z,15.00
2017-05-22T05:59:25.449Z,15.10
2017-05-22T06:01:52.277Z,15.30
2017-05-22T06:04:19.050Z,15.30
2017-05-22T06:06:45.809Z,15.40
2017-05-22T06:09:12.605Z,15.40
2017-05-22T06:11:39.462Z,15.40
2017-05-22T06:14:21.297Z,15.40
2017-05-22T06:16:48.104Z,15.40
2017-05-22T06:19:14.944Z,15.40
2017-05-22T06:21:41.789Z,15.50
2017-05-22T06:24:08.745Z,15.50
2017-05-22T06:32:22.793Z,15.60
2017-05-22T06:34:49.561Z,15.70
2017-05-22T06:37:16.328Z,15.70
2017-05-22T06:39:43.101Z,15.80
2017-05-22T06:42:09.877Z,15.90
2017-05-22T06:44:36.689Z,16.10
2017-05-22T06:47:03.505Z,16.30
2017-05-22T06:49:30.321Z,16.50
2017-05-22T06:51:57.097Z,16.60
2017-05-22T06:54:23.904Z,16.60
2017-05-22T06:57:05.645Z,16.70
2017-05-22T06:59:32.468Z,17.00
2017-05-22T07:01:59.360Z,17.20
2017-05-22T07:04:26.136Z,17.00
2017-05-22T07:06:52.941Z,17.10
2017-05-22T07:09:19.724Z,17.30
2017-05-22T07:11:46.504Z,17.40
2017-05-22T07:14:13.346Z,17.40
2017-05-22T07:16:40.136Z,17.50
2017-05-22T07:19:06.912Z,17.50
2017-05-22T07:21:33.712Z,17.40
2017-05-22T07:24:00.600Z,17.40
2017-05-22T07:26:27.363Z,17.30
2017-05-22T07:28:54.165Z,17.50
2017-05-22T07:31:20.952Z,17.50
2017-05-22T07:33:47.716Z,17.70
2017-05-22T07:36:14.564Z,17.70
2017-05-22T07:38:41.416Z,17.80
2017-05-22T07:41:08.224Z,17.70
2017-05-22T07:43:35.024Z,17.60
2017-05-22T07:46:01.812Z,17.90
2017-05-22T07:48:28.584Z,18.10
2017-05-22T07:50:55.359Z,18.00
2017-05-22T07:53:22.144Z,18.20
2017-05-22T07:55:48.967Z,18.40
2017-05-22T07:58:15.772Z,18.70
2017-05-22T08:00:42.572Z,18.70
2017-05-22T08:03:09.380Z,18.90
2017-05-22T08:05:36.184Z,19.00
2017-05-22T08:08:02.948Z,19.20
2017-05-22T08:10:29.755Z,19.40
2017-05-22T08:12:56.516Z,19.50
2017-05-22T08:15:23.295Z,19.50
2017-05-22T08:17:50.052Z,19.50
2017-05-22T08:20:16.866Z,19.40
2017-05-22T08:22:43.720Z,19.20
2017-05-22T08:25:10.496Z,19.20
2017-05-22T08:27:37.287Z,19.40
2017-05-22T08:30:04.051Z,19.60
2017-05-22T08:32:30.832Z,19.60
2017-05-22T08:34:57.628Z,19.70
2017-05-22T08:37:24.407Z,19.90
2017-05-22T08:39:51.239Z,20.00
2017-05-22T08:42:18.047Z,19.90
2017-05-22T08:44:44.828Z,20.20
2017-05-22T08:47:11.613Z,20.40
2017-05-22T08:49:38.407Z,20.70
2017-05-22T08:52:05.188Z,20.70
2017-05-22T08:54:31.956Z,20.70
2017-05-22T08:56:58.759Z,20.80
2017-05-22T08:59:25.551Z,20.80
2017-05-22T09:01:52.383Z,20.90
2017-05-22T09:04:19.175Z,21.10
2017-05-22T09:06:45.951Z,21.30
2017-05-22T09:09:12.711Z,21.30
2017-05-22T09:11:39.479Z,21.20
2017-05-22T09:14:06.235Z,21.20
2017-05-22T09:16:33.027Z,21.20
2017-05-22T09:18:59.827Z,21.30
2017-05-22T09:21:26.607Z,21.40
2017-05-22T09:23:53.363Z,21.40
2017-05-22T09:26:20.146Z,21.20
2017-05-22T09:28:46.903Z,21.40
2017-05-22T09:31:13.674Z,21.50
2017-05-22T09:33:40.468Z,21.20
2017-05-22T09:36:07.242Z,21.00
2017-05-22T09:38:34.042Z,21.10
2017-05-22T09:41:00.874Z,21.40
2017-05-22T09:43:27.696Z,21.30
2017-05-22T09:45:54.467Z,21.50
2017-05-22T09:48:21.259Z,21.50
2017-05-22T09:50:48.035Z,21.10
2017-05-22T09:53:14.855Z,21.30
2017-05-22T09:55:41.654Z,21.40
2017-05-22T09:58:08.414Z,21.20
2017-05-22T10:00:35.263Z,21.10
2017-05-22T10:03:02.066Z,21.40
2017-05-22T10:05:28.839Z,21.60
2017-05-22T10:07:55.594Z,21.20
2017-05-22T10:10:22.418Z,21.40
2017-05-22T10:12:49.208Z,21.70
2017-05-22T10:15:16.030Z,21.90
2017-05-22T10:17:42.854Z,21.50
2017-05-22T10:20:09.679Z,21.80
2017-05-22T10:22:36.434Z,21.70
2017-05-22T10:25:03.246Z,21.70
2017-05-22T10:27:30.022Z,21.60
2017-05-22T10:29:56.819Z,21.70
2017-05-22T10:32:23.610Z,21.80
2017-05-22T10:34:50.390Z,22.20
2017-05-22T10:37:17.167Z,22.60
2017-05-22T10:39:44.070Z,22.70
2017-05-22T10:42:10.842Z,22.90
2017-05-22T10:44:37.622Z,23.10
2017-05-22T10:47:04.426Z,23.20
2017-05-22T10:49:31.210Z,23.00
2017-05-22T10:51:58.117Z,23.00
2017-05-22T10:54:24.961Z,23.20
2017-05-22T10:56:51.782Z,23.00
2017-05-22T10:59:19.061Z,22.80
2017-05-22T11:01:45.902Z,22.50
2017-05-22T11:04:12.689Z,22.50
2017-05-22T11:06:39.513Z,22.50
2017-05-22T11:09:06.330Z,22.50
2017-05-22T11:11:33.173Z,22.60
2017-05-22T11:13:59.957Z,22.60
2017-05-22T11:16:26.741Z,22.50
2017-05-22T11:18:53.529Z,23.20
2017-05-22T11:21:20.313Z,23.50
2017-05-22T11:23:47.174Z,23.60
2017-05-22T11:26:13.982Z,23.70
2017-05-22T11:28:40.761Z,23.20
2017-05-22T11:31:07.569Z,22.40
2017-05-22T11:33:34.369Z,23.10
2017-05-22T11:36:01.221Z,23.00
2017-05-22T11:38:28.005Z,22.70
2017-05-22T11:40:54.801Z,23.00
2017-05-22T11:43:21.601Z,23.30
2017-05-22T11:45:48.434Z,23.60
2017-05-22T11:48:15.281Z,23.50
2017-05-22T11:50:42.058Z,23.20
2017-05-22T11:53:08.874Z,23.40
2017-05-22T11:55:35.664Z,23.50
2017-05-22T11:58:02.453Z,23.20
2017-05-22T12:00:29.285Z,22.90
2017-05-22T12:02:56.122Z,22.90
2017-05-22T12:05:22.921Z,23.10
2017-05-22T12:07:49.752Z,22.90
2017-05-22T12:10:16.577Z,23.10
2017-05-22T12:12:43.409Z,22.90
2017-05-22T12:15:10.249Z,23.10
2017-05-22T12:17:37.024Z,23.40
2017-05-22T12:20:03.868Z,23.30
2017-05-22T12:22:30.649Z,22.90
2017-05-22T12:24:57.444Z,22.70
2017-05-22T12:27:39.217Z,22.80
2017-05-22T12:30:06.029Z,22.90
2017-05-22T12:32:32.812Z,22.90
2017-05-22T12:34:59.592Z,22.70
2017-05-22T12:37:26.392Z,22.60
2017-05-22T12:39:53.169Z,22.80
2017-05-22T12:42:19.960Z,22.70
2017-05-22T12:44:46.784Z,22.80
2017-05-22T12:47:13.596Z,22.60
2017-05-22T12:49:40.477Z,22.70
2017-05-22T12:52:07.261Z,22.90
2017-05-22T12:54:34.055Z,23.30
2017-05-22T12:57:00.860Z,23.70
2017-05-22T12:59:27.675Z,23.40
2017-05-22T13:01:54.496Z,23.40
2017-05-22T13:04:21.301Z,23.50
2017-05-22T13:06:48.080Z,23.50
2017-05-22T13:09:14.888Z,23.70
2017-05-22T13:11:41.744Z,23.50
2017-05-22T13:14:08.523Z,23.40
2017-05-22T13:16:35.320Z,23.00
2017-05-22T13:19:02.099Z,23.00
2017-05-22T13:21:29.927Z,22.80
2017-05-22T13:23:56.708Z,22.60
2017-05-22T13:26:23.496Z,23.00
2017-05-22T13:28:50.280Z,23.10
2017-05-22T13:31:17.084Z,23.20
2017-05-22T13:33:43.888Z,23.50
2017-05-22T13:36:10.668Z,23.50
2017-05-22T13:38:37.488Z,23.60
2017-05-22T13:41:04.275Z,23.80
2017-05-22T13:43:31.067Z,23.50
2017-05-22T13:45:57.859Z,22.80
2017-05-22T13:48:24.663Z,22.50
2017-05-22T13:50:51.492Z,22.60
2017-05-22T13:53:18.291Z,22.80
2017-05-22T13:55:45.106Z,22.90
2017-05-22T13:58:11.883Z,22.70
2017-05-22T14:00:38.659Z,22.70
2017-05-22T14:03:05.459Z,23.00
2017-05-22T14:05:32.235Z,22.90
2017-05-22T14:07:59.028Z,23.20
2017-05-22T14:10:25.811Z,23.20
2017-05-22T14:12:52.588Z,23.30
2017-05-22T14:15:19.383Z,23.20
2017-05-22T14:17:46.147Z,23.10
2017-05-22T14:20:12.908Z,23.20
2017-05-22T14:22:39.659Z,23.10
2017-05-22T14:25:06.451Z,23.00
2017-05-22T14:27:33.230Z,22.80
2017-05-22T14:29:59.999Z,22.90
2017-05-22T14:32:26.774Z,23.10
2017-05-22T14:34:53.587Z,23.30
2017-05-22T14:37:20.363Z,23.40
2017-05-22T14:39:47.151Z,23.40
2017-05-22T14:42:13.910Z,23.70
2017-05-22T14:44:40.679Z,23.80
2017-05-22T14:47:07.555Z,23.70
2017-05-22T14:49:34.326Z,23.40
2017-05-22T14:52:01.079Z,23.20
2017-05-22T14:54:27.903Z,23.00
2017-05-22T14:56:54.667Z,23.10
2017-05-22T14:59:21.435Z,23.20
2017-05-22T15:01:48.195Z,23.10
2017-05-22T15:04:14.955Z,23.10
2017-05-22T15:06:41.723Z,22.80
2017-05-22T15:09:08.510Z,23.00
2017-05-22T15:11:35.286Z,22.90
2017-05-22T15:14:02.050Z,22.70
2017-05-22T15:16:28.826Z,22.30
2017-05-22T15:18:55.602Z,22.30
2017-05-22T15:21:22.426Z,22.40
2017-05-22T15:23:49.246Z,22.50
2017-05-22T15:26:16.011Z,22.70
2017-05-22T15:28:42.804Z,23.10
2017-05-22T15:31:09.654Z,23.00
2017-05-22T15:33:36.434Z,22.80
2017-05-22T15:36:03.202Z,23.00
2017-05-22T15:38:30.006Z,23.10
2017-05-22T15:40:56.790Z,23.00
2017-05-22T15:43:23.556Z,22.60
2017-05-22T15:45:50.342Z,22.80
2017-05-22T15:48:17.134Z,22.80
2017-05-22T15:50:43.950Z,22.90
2017-05-22T15:53:10.721Z,23.00
2017-05-22T15:55:37.494Z,22.90
2017-05-22T15:58:04.281Z,23.00
2017-05-22T16:00:31.045Z,23.10
2017-05-22T16:02:57.825Z,23.10
2017-05-22T16:05:24.574Z,23.00
2017-05-22T16:07:51.338Z,23.00
2017-05-22T16:10:18.133Z,23.00
2017-05-22T16:12:44.946Z,22.80
2017-05-22T16:15:11.762Z,22.80
2017-05-22T16:17:38.542Z,22.80
2017-05-22T16:20:05.318Z,22.80
2017-05-22T16:22:32.118Z,22.90
2017-05-22T16:24:58.874Z,22.80
2017-05-22T16:27:25.649Z,22.80
2017-05-22T16:29:52.445Z,22.80
2017-05-22T16:32:19.282Z,22.70
2017-05-22T16:34:46.037Z,22.70
2017-05-22T16:37:12.809Z,22.70
2017-05-22T16:39:38.821Z,22.70
2017-05-22T16:42:05.614Z,22.60
2017-05-22T16:44:32.406Z,22.50
2017-05-22T16:46:59.180Z,22.50
2017-05-22T16:49:25.946Z,22.60
2017-05-22T16:51:52.713Z,22.50
2017-05-22T16:54:19.514Z,22.50
2017-05-22T16:56:46.297Z,22.40
2017-05-22T16:59:13.098Z,22.40
2017-05-22T17:01:39.877Z,22.30
2017-05-22T17:04:06.653Z,22.30
2017-05-22T17:06:33.441Z,22.10
2017-05-22T17:09:00.693Z,22.00
2017-05-22T17:11:27.501Z,22.10
2017-05-22T17:13:54.334Z,22.10
2017-05-22T17:16:21.112Z,22.10
2017-05-22T17:18:48.413Z,22.10
2017-05-22T17:21:15.272Z,22.00
2017-05-22T17:23:42.034Z,22.00
2017-05-22T17:26:08.808Z,22.00
2017-05-22T17:28:35.608Z,21.90
2017-05-22T17:31:02.396Z,21.90
2017-05-22T17:33:29.209Z,21.80
2017-05-22T17:35:55.996Z,21.80
2017-05-22T17:38:22.764Z,21.70
2017-05-22T17:40:49.508Z,21.70
2017-05-22T17:43:16.313Z,21.80
2017-05-22T17:45:43.076Z,21.70
2017-05-22T17:48:09.834Z,21.60
2017-05-22T17:50:36.636Z,21.50
2017-05-22T17:53:03.444Z,21.50
2017-05-22T17:55:30.249Z,21.50
2017-05-22T17:57:57.045Z,21.50
2017-05-22T18:00:23.860Z,21.50
2017-05-22T18:02:50.632Z,21.40
2017-05-22T18:05:17.412Z,21.30
2017-05-22T18:07:44.184Z,21.30
2017-05-22T18:10:10.988Z,21.30
2017-05-22T18:12:37.809Z,21.20
2017-05-22T18:15:04.642Z,21.20
2017-05-22T18:17:31.428Z,21.10
2017-05-22T18:19:58.280Z,21.10
2017-05-22T18:22:25.132Z,21.00
2017-05-22T18:24:51.948Z,21.00
2017-05-22T18:27:18.808Z,20.90
2017-05-22T18:29:45.652Z,20.80
2017-05-22T18:32:12.496Z,20.80
2017-05-22T18:34:39.520Z,20.70
2017-05-22T18:37:06.369Z,20.70
2017-05-22T18:39:33.205Z,20.60
2017-05-22T18:42:00.136Z,20.50
2017-05-22T18:44:26.996Z,20.50
2017-05-22T18:46:53.852Z,20.50
2017-05-22T18:49:20.696Z,20.50
2017-05-22T18:51:47.551Z,20.40
2017-05-22T18:54:14.511Z,20.40
2017-05-22T18:56:41.427Z,20.30
2017-05-22T18:59:08.272Z,20.20
2017-05-22T19:01:35.100Z,20.30
2017-05-22T19:04:08.699Z,20.20
2017-05-22T19:06:35.488Z,20.10
2017-05-22T19:09:02.471Z,19.90
2017-05-22T19:11:29.544Z,19.90
2017-05-22T19:14:06.419Z,19.90
2017-05-22T19:16:33.268Z,19.70
2017-05-22T19:19:00.103Z,19.70
2017-05-22T19:21:26.959Z,19.60
2017-05-22T19:23:59.619Z,19.60
2017-05-22T19:26:45.931Z,19.60
2017-05-22T19:29:18.412Z,19.10
2017-05-22T19:31:45.235Z,18.60
2017-05-22T19:34:12.059Z,18.40
2017-05-22T19:36:38.903Z,18.40
2017-05-22T19:39:05.763Z,18.50
2017-05-22T19:41:32.607Z,18.50
2017-05-22T19:43:59.435Z,18.50
2017-05-22T19:46:26.263Z,18.50
2017-05-22T19:48:54.087Z,18.50
2017-05-22T19:51:20.915Z,18.40
2017-05-22T19:53:47.759Z,18.20
2017-05-22T19:56:16.591Z,18.10
2017-05-22T19:58:43.455Z,18.00
2017-05-22T20:01:10.271Z,18.00
2017-05-22T20:03:37.088Z,17.90
2017-05-22T20:06:04.955Z,17.70
2017-05-22T20:08:33.782Z,17.50
2017-05-22T20:11:00.582Z,17.40
2017-05-22T20:13:27.407Z,17.40
2017-05-22T20:15:58.067Z,17.20
2017-05-22T20:18:24.882Z,17.40
2017-05-22T20:20:50.959Z,17.40
2017-05-22T20:23:19.811Z,17.50
2017-05-22T20:25:59.331Z,17.50
2017-05-22T20:28:29.771Z,17.40
2017-05-22T20:31:00.230Z,17.40
2017-05-22T20:33:28.159Z,17.00
2017-05-22T20:35:55.991Z,16.90
2017-05-22T20:38:41.083Z,16.60
2017-05-22T20:41:07.930Z,16.60
2017-05-22T20:43:38.995Z,16.50
2017-05-22T20:49:12.058Z,16.50
2017-05-22T20:51:43.610Z,16.30
2017-05-22T20:54:20.895Z,16.10
2017-05-22T20:59:30.247Z,16.10
2017-05-22T21:01:57.115Z,16.10
2017-05-22T21:04:27.102Z,16.10
2017-05-22T21:06:54.066Z,15.90
2017-05-22T21:09:27.475Z,15.70
2017-05-22T21:11:54.374Z,15.60
2017-05-22T21:14:23.175Z,15.60
2017-05-22T21:16:50.010Z,15.80
2017-05-22T21:19:18.946Z,15.90
2017-05-22T21:21:53.438Z,16.00
2017-05-22T21:24:20.258Z,16.00
2017-05-22T21:26:47.050Z,15.90
2017-05-22T21:29:13.990Z,15.90
2017-05-22T21:31:44.233Z,16.10
2017-05-22T21:34:11.149Z,16.10
2017-05-22T21:36:41.645Z,16.00
2017-05-22T21:39:10.550Z,15.40
2017-05-22T21:41:38.546Z,15.30
2017-05-22T21:44:05.477Z,15.20
2017-05-22T21:46:32.282Z,15.30
2017-05-22T21:48:59.193Z,15.40
2017-05-22T21:51:26.109Z,15.20
2017-05-22T21:53:53.997Z,15.10
2017-05-22T21:56:20.894Z,15.00
2017-05-22T21:58:49.809Z,14.90
2017-05-22T22:01:16.733Z,14.90
2017-05-22T22:03:44.602Z,15.00
2017-05-22T22:06:13.497Z,15.00
2017-05-22T22:08:41.369Z,14.90
2017-05-22T22:11:08.169Z,14.70
2017-05-22T22:13:40.773Z,14.70
2017-05-22T22:16:13.265Z,14.60
2017-05-22T22:18:41.140Z,14.50
2017-05-22T22:21:08.037Z,14.70
2017-05-22T22:23:34.877Z,14.80
2017-05-22T22:26:01.753Z,14.80
2017-05-22T22:28:30.714Z,14.80
2017-05-22T22:31:03.529Z,14.60
2017-05-22T22:33:35.858Z,14.50
2017-05-22T22:36:02.705Z,14.30
2017-05-22T22:38:29.497Z,14.30
2017-05-22T22:40:56.353Z,14.60
2017-05-22T22:43:23.277Z,14.70
2017-05-22T22:45:50.065Z,14.60
2017-05-22T22:48:16.945Z,14.60
2017-05-22T22:50:43.825Z,14.40
2017-05-22T22:53:10.604Z,14.30
2017-05-22T22:55:37.404Z,13.80
2017-05-22T22:58:04.232Z,13.60
2017-05-22T23:00:31.032Z,13.60
2017-05-22T23:02:57.961Z,13.60
2017-05-22T23:05:24.784Z,13.60
2017-05-22T23:07:53.613Z,13.70
2017-05-22T23:10:20.440Z,14.00
2017-05-22T23:12:48.326Z,14.10
2017-05-22T23:15:15.269Z,14.10
2017-05-22T23:17:42.108Z,14.20
2017-05-22T23:20:09.020Z,14.30
2017-05-22T23:22:35.892Z,14.20
2017-05-22T23:25:02.788Z,14.40
2017-05-22T23:27:34.943Z,14.40
2017-05-22T23:30:05.228Z,14.30
2017-05-22T23:32:32.160Z,14.00
2017-05-22T23:34:59.020Z,13.50
2017-05-22T23:37:25.876Z,13.20
2017-05-22T23:39:56.896Z,13.00
2017-05-22T23:42:24.864Z,13.20
2017-05-22T23:44:53.744Z,13.30
2017-05-22T23:47:21.641Z,13.50
2017-05-22T23:49:48.620Z,13.60
2017-05-22T23:52:15.519Z,13.70
2017-05-22T23:54:44.556Z,13.80
2017-05-22T23:57:12.471Z,13.70
2017-05-22T23:59:39.301Z,13.60
